createdAt,value
2023-04-07T00:00:13.650Z,5.95
2023-04-07T00:02:42.424Z,7.65
2023-04-07T00:05:11.053Z,6.75
2023-04-07T00:07:48.515Z,5.57
2023-04-07T00:10:22.452Z,8.07
2023-04-07T00:12:49.092Z,8.52
2023-04-07T00:15:15.747Z,12.23
2023-04-07T00:17:42.447Z,10.23
2023-04-07T00:20:09.361Z,5.95
2023-04-07T00:22:35.964Z,7.93
2023-04-07T00:25:02.534Z,6.47
2023-04-07T00:27:29.178Z,9.20
2023-04-07T00:29:55.831Z,11.05
2023-04-07T00:32:22.940Z,10.18
2023-04-07T00:34:49.687Z,8.00
2023-04-07T00:37:16.483Z,9.73
2023-04-07T00:39:43.125Z,5.60
2023-04-07T00:42:10.228Z,9.57
2023-04-07T00:44:36.893Z,8.00
2023-04-07T00:47:03.698Z,7.30
2023-04-07T00:49:31.579Z,8.02
2023-04-07T00:51:58.973Z,5.80
2023-04-07T00:54:26.065Z,8.27
2023-04-07T00:56:53.672Z,6.90
2023-04-07T00:59:21.864Z,7.25
2023-04-07T01:02:02.756Z,7.43
2023-04-07T01:04:44.487Z,5.85
2023-04-07T01:07:41.280Z,6.50
2023-04-07T01:10:13.377Z,8.68
2023-04-07T01:12:56.777Z,5.05
2023-04-07T01:15:27.507Z,9.35
2023-04-07T01:18:09.122Z,7.03
2023-04-07T01:20:37.791Z,9.70
2023-04-07T01:23:08.073Z,7.43
2023-04-07T01:26:10.235Z,5.07
2023-04-07T01:29:01.918Z,5.75
2023-04-07T01:31:30.281Z,7.82
2023-04-07T01:33:59.605Z,7.05
2023-04-07T01:36:28.556Z,7.47
2023-04-07T01:38:55.912Z,7.13
2023-04-07T01:41:24.371Z,6.13
2023-04-07T01:43:52.543Z,10.55
2023-04-07T01:46:20.230Z,10.40
2023-04-07T01:48:48.289Z,9.98
2023-04-07T01:51:18.892Z,6.05
2023-04-07T01:53:49.633Z,6.38
2023-04-07T01:56:16.762Z,5.63
2023-04-07T01:58:43.440Z,10.55
2023-04-07T02:01:10.481Z,8.90
2023-04-07T02:03:44.818Z,8.60
2023-04-07T02:06:18.033Z,10.10
2023-04-07T02:08:49.392Z,10.77
2023-04-07T02:11:18.570Z,10.18
2023-04-07T02:13:46.278Z,9.98
2023-04-07T02:16:13.820Z,12.30
2023-04-07T02:18:41.629Z,13.45
2023-04-07T02:21:09.303Z,11.10
2023-04-07T02:23:36.186Z,16.10
2023-04-07T02:26:02.890Z,8.27
2023-04-07T02:28:29.533Z,9.73
2023-04-07T02:30:56.281Z,8.13
2023-04-07T02:33:22.922Z,9.52
2023-04-07T02:35:49.538Z,11.88
2023-04-07T02:38:16.350Z,15.75
2023-04-07T02:40:42.963Z,9.00
2023-04-07T02:43:09.557Z,10.45
2023-04-07T02:45:36.152Z,7.55
2023-04-07T02:48:02.827Z,14.52
2023-04-07T02:50:29.521Z,15.40
2023-04-07T02:52:56.696Z,14.15
2023-04-07T02:55:23.391Z,11.52
2023-04-07T02:57:50.304Z,10.38
2023-04-07T03:00:17.051Z,11.88
2023-04-07T03:02:43.795Z,10.43
2023-04-07T03:05:10.756Z,10.43
2023-04-07T03:07:37.361Z,9.70
2023-04-07T03:10:04.116Z,12.75
2023-04-07T03:12:30.846Z,12.48
2023-04-07T03:14:57.529Z,10.25
2023-04-07T03:17:24.333Z,14.65
2023-04-07T03:19:51.909Z,14.68
2023-04-07T03:22:18.562Z,14.52
2023-04-07T03:24:45.595Z,12.43
2023-04-07T03:27:12.236Z,9.55
2023-04-07T03:29:38.946Z,9.65
2023-04-07T03:32:05.767Z,18.17
2023-04-07T03:34:32.450Z,12.95
2023-04-07T03:36:59.104Z,12.13
2023-04-07T03:39:25.755Z,12.82
2023-04-07T03:41:52.471Z,15.25
2023-04-07T03:44:19.106Z,12.40
2023-04-07T03:46:47.031Z,13.80
2023-04-07T03:49:14.373Z,11.43
2023-04-07T03:51:40.985Z,10.13
2023-04-07T03:54:07.656Z,13.68
2023-04-07T03:56:34.300Z,19.38
2023-04-07T03:59:01.057Z,11.02
2023-04-07T04:01:27.794Z,17.17
2023-04-07T04:03:54.746Z,10.60
2023-04-07T04:06:21.612Z,13.43
2023-04-07T04:08:48.229Z,8.10
2023-04-07T04:11:14.914Z,12.70
2023-04-07T04:13:41.663Z,11.32
2023-04-07T04:16:08.387Z,12.82
2023-04-07T04:18:35.020Z,15.68
2023-04-07T04:21:01.653Z,13.15
2023-04-07T04:23:28.236Z,7.07
2023-04-07T04:25:54.932Z,14.85
2023-04-07T04:28:21.670Z,10.60
2023-04-07T04:30:48.377Z,11.00
2023-04-07T04:33:14.995Z,15.48
2023-04-07T04:35:43.165Z,9.23
2023-04-07T04:38:10.840Z,14.75
2023-04-07T04:40:37.588Z,10.80
2023-04-07T04:43:07.205Z,14.00
2023-04-07T04:45:33.930Z,12.13
2023-04-07T04:48:00.639Z,14.02
2023-04-07T04:50:27.570Z,13.02
2023-04-07T04:52:56.335Z,12.05
2023-04-07T04:55:23.036Z,11.65
2023-04-07T04:57:49.669Z,11.43
2023-04-07T05:00:16.616Z,12.95
2023-04-07T05:02:43.647Z,13.10
2023-04-07T05:05:10.757Z,17.13
2023-04-07T05:07:37.471Z,16.55
2023-04-07T05:10:04.673Z,15.73
2023-04-07T05:12:31.463Z,10.45
2023-04-07T05:14:58.222Z,9.93
2023-04-07T05:17:25.015Z,19.33
2023-04-07T05:19:51.800Z,14.77
2023-04-07T05:22:18.500Z,11.95
2023-04-07T05:24:45.296Z,15.35
2023-04-07T05:27:12.125Z,7.45
2023-04-07T05:29:38.761Z,9.60
2023-04-07T05:32:08.888Z,11.30
2023-04-07T05:34:36.025Z,11.23
2023-04-07T05:37:02.656Z,10.60
2023-04-07T05:39:29.292Z,10.77
2023-04-07T05:41:57.641Z,12.68
2023-04-07T05:44:24.357Z,8.95
2023-04-07T05:46:51.073Z,9.55
2023-04-07T05:49:19.950Z,11.23
2023-04-07T05:51:48.811Z,9.50
2023-04-07T05:54:15.982Z,12.30
2023-04-07T05:56:42.608Z,11.73
2023-04-07T05:59:09.990Z,10.10
2023-04-07T06:01:36.799Z,12.10
2023-04-07T06:04:04.287Z,10.38
2023-04-07T06:06:31.320Z,16.38
2023-04-07T06:08:58.069Z,11.50
2023-04-07T06:11:25.186Z,13.05
2023-04-07T06:13:52.164Z,16.67
2023-04-07T06:16:19.714Z,14.52
2023-04-07T06:18:46.733Z,10.35
2023-04-07T06:21:14.203Z,12.60
2023-04-07T06:23:41.058Z,13.50
2023-04-07T06:26:11.956Z,12.35
2023-04-07T06:28:39.595Z,11.80
2023-04-07T06:31:07.392Z,16.05
2023-04-07T06:33:34.182Z,17.30
2023-04-07T06:36:00.808Z,9.30
2023-04-07T06:38:27.503Z,15.52
2023-04-07T06:40:54.180Z,12.80
2023-04-07T06:43:20.955Z,16.05
2023-04-07T06:45:47.681Z,12.10
2023-04-07T06:48:14.365Z,14.20
2023-04-07T06:50:41.211Z,13.52
2023-04-07T06:53:07.837Z,13.05
2023-04-07T06:55:34.550Z,15.82
2023-04-07T06:58:01.195Z,13.85
2023-04-07T07:00:30.233Z,15.68
2023-04-07T07:02:57.296Z,13.65
2023-04-07T07:05:24.439Z,13.60
2023-04-07T07:07:51.982Z,13.10
2023-04-07T07:10:20.507Z,12.48
2023-04-07T07:12:47.103Z,14.77
2023-04-07T07:15:13.829Z,9.55
2023-04-07T07:17:40.601Z,12.00
2023-04-07T07:20:07.918Z,12.55
2023-04-07T07:22:34.527Z,9.57
2023-04-07T07:25:01.340Z,11.65
2023-04-07T07:27:28.035Z,8.27
2023-04-07T07:29:54.681Z,7.43
2023-04-07T07:32:21.457Z,13.23
2023-04-07T07:34:48.125Z,14.00
2023-04-07T07:37:14.774Z,10.30
2023-04-07T07:39:41.520Z,7.60
2023-04-07T07:42:08.186Z,13.82
2023-04-07T07:44:34.807Z,9.07
2023-04-07T07:47:01.485Z,12.05
2023-04-07T07:49:28.126Z,8.02
2023-04-07T07:51:54.809Z,8.90
2023-04-07T07:54:21.469Z,14.02
2023-04-07T07:56:48.094Z,9.25
2023-04-07T07:59:16.103Z,12.07
2023-04-07T08:01:43.944Z,8.68
2023-04-07T08:04:11.058Z,7.30
2023-04-07T08:06:37.869Z,7.97
2023-04-07T08:09:06.125Z,8.20
2023-04-07T08:11:32.844Z,10.25
2023-04-07T08:13:59.483Z,8.48
2023-04-07T08:16:27.030Z,9.15
2023-04-07T08:18:53.771Z,11.60
2023-04-07T08:21:21.024Z,10.85
2023-04-07T08:23:47.918Z,9.15
2023-04-07T08:26:14.971Z,16.77
2023-04-07T08:28:42.808Z,10.27
2023-04-07T08:31:09.493Z,12.07
2023-04-07T08:33:36.144Z,11.15
2023-04-07T08:36:03.030Z,12.48
2023-04-07T08:38:29.790Z,15.13
2023-04-07T08:41:03.091Z,11.13
2023-04-07T08:43:30.287Z,8.02
2023-04-07T08:45:58.110Z,11.60
2023-04-07T08:48:29.999Z,14.38
2023-04-07T08:50:57.692Z,12.15
2023-04-07T08:53:31.402Z,10.13
2023-04-07T08:55:58.539Z,7.40
2023-04-07T08:58:25.992Z,16.95
2023-04-07T09:00:53.254Z,9.80
2023-04-07T09:03:20.990Z,14.77
2023-04-07T09:05:49.093Z,8.93
2023-04-07T09:08:15.677Z,10.48
2023-04-07T09:10:42.450Z,8.07
2023-04-07T09:13:09.305Z,14.40
2023-04-07T09:15:38.398Z,11.23
2023-04-07T09:18:05.744Z,10.77
2023-04-07T09:21:01.458Z,6.50
2023-04-07T09:23:33.419Z,7.80
2023-04-07T09:26:01.767Z,11.93
2023-04-07T09:28:55.737Z,7.10
2023-04-07T09:31:26.179Z,6.38
2023-04-07T09:33:53.340Z,7.95
2023-04-07T09:36:20.446Z,6.82
2023-04-07T09:38:47.117Z,9.60
2023-04-07T09:41:16.409Z,7.75
2023-04-07T09:43:45.374Z,4.90
2023-04-07T09:46:14.806Z,10.13
2023-04-07T09:48:43.622Z,6.20
2023-04-07T09:51:12.029Z,6.28
2023-04-07T09:53:52.524Z,6.40
2023-04-07T09:56:22.256Z,8.45
2023-04-07T09:58:51.898Z,3.40
2023-04-07T10:01:18.952Z,7.07
2023-04-07T10:03:47.861Z,6.88
2023-04-07T10:06:16.465Z,7.40
2023-04-07T10:08:43.633Z,7.32
2023-04-07T10:11:10.832Z,12.45
2023-04-07T10:13:39.758Z,7.05
2023-04-07T10:16:07.743Z,4.82
2023-04-07T10:18:35.925Z,6.82
2023-04-07T10:21:05.047Z,4.50
2023-04-07T10:23:39.797Z,5.97
2023-04-07T10:26:07.787Z,6.40
2023-04-07T10:28:38.760Z,3.67
2023-04-07T10:31:06.076Z,11.48
2023-04-07T10:33:50.652Z,9.57
2023-04-07T10:36:19.813Z,15.52
2023-04-07T10:39:08.389Z,7.07
2023-04-07T10:41:36.860Z,9.75
2023-04-07T10:44:08.845Z,10.38
2023-04-07T10:47:01.502Z,7.78
2023-04-07T10:49:29.019Z,12.43
2023-04-07T10:52:28.177Z,10.88
2023-04-07T10:55:30.006Z,7.22
2023-04-07T10:58:25.122Z,11.48
2023-04-07T11:01:06.759Z,10.38
2023-04-07T11:03:35.905Z,8.00
2023-04-07T11:06:10.556Z,9.65
2023-04-07T11:08:42.298Z,8.88
2023-04-07T11:11:11.455Z,9.02
2023-04-07T11:13:49.583Z,7.10
2023-04-07T11:16:18.460Z,8.75
2023-04-07T11:18:47.945Z,11.38
2023-04-07T11:21:19.547Z,8.13
2023-04-07T11:23:47.671Z,14.85
2023-04-07T11:26:16.161Z,12.15
2023-04-07T11:28:54.126Z,16.60
2023-04-07T11:31:29.267Z,7.85
2023-04-07T11:33:57.445Z,10.38
2023-04-07T11:36:32.384Z,9.20
2023-04-07T11:39:00.595Z,11.27
2023-04-07T11:41:30.557Z,12.18
2023-04-07T11:44:05.549Z,10.00
2023-04-07T11:46:32.306Z,10.98
2023-04-07T11:49:13.053Z,14.45
2023-04-07T11:51:41.279Z,18.35
2023-04-07T11:54:08.106Z,13.20
2023-04-07T11:56:46.094Z,14.63
2023-04-07T11:59:24.297Z,7.38
2023-04-07T12:01:53.520Z,11.57
2023-04-07T12:04:22.202Z,9.77
2023-04-07T12:06:49.461Z,6.53
2023-04-07T12:09:31.143Z,9.55
2023-04-07T12:11:58.470Z,8.55
2023-04-07T12:14:26.342Z,7.75
2023-04-07T12:16:56.060Z,9.57
2023-04-07T12:19:24.002Z,17.15
2023-04-07T12:21:50.683Z,10.32
2023-04-07T12:24:17.812Z,11.60
2023-04-07T12:26:44.950Z,10.15
2023-04-07T12:29:11.623Z,17.20
2023-04-07T12:31:38.277Z,11.15
2023-04-07T12:34:05.122Z,6.55
2023-04-07T12:36:31.823Z,10.10
2023-04-07T12:38:59.004Z,9.75
2023-04-07T12:41:25.799Z,5.38
2023-04-07T12:43:52.705Z,7.55
2023-04-07T12:46:21.234Z,9.00
2023-04-07T12:48:48.082Z,6.40
2023-04-07T12:51:15.004Z,7.40
2023-04-07T12:53:41.748Z,4.97
2023-04-07T12:56:08.478Z,7.22
2023-04-07T12:58:35.070Z,7.82
2023-04-07T13:01:01.824Z,10.07
2023-04-07T13:03:28.738Z,7.60
2023-04-07T13:05:55.814Z,8.60
2023-04-07T13:08:22.485Z,10.65
2023-04-07T13:10:49.148Z,7.03
2023-04-07T13:13:16.008Z,5.90
2023-04-07T13:15:42.607Z,7.55
2023-04-07T13:18:09.265Z,10.27
2023-04-07T13:20:36.004Z,7.63
2023-04-07T13:23:08.203Z,9.07
2023-04-07T13:25:37.510Z,7.53
2023-04-07T13:28:04.372Z,6.13
2023-04-07T13:30:31.164Z,7.55
2023-04-07T13:32:58.056Z,10.05
2023-04-07T13:35:24.702Z,7.20
2023-04-07T13:37:51.370Z,12.00
2023-04-07T13:40:18.174Z,7.63
2023-04-07T13:42:44.816Z,8.80
2023-04-07T13:45:11.484Z,14.43
2023-04-07T13:47:38.510Z,7.45
2023-04-07T13:50:05.688Z,5.57
2023-04-07T13:52:35.102Z,9.65
2023-04-07T13:55:03.721Z,9.70
2023-04-07T13:57:30.385Z,7.88
2023-04-07T13:59:57.112Z,9.73
2023-04-07T14:02:24.680Z,8.23
2023-04-07T14:04:52.038Z,5.68
2023-04-07T14:07:18.688Z,11.63
2023-04-07T14:09:46.255Z,12.48
2023-04-07T14:12:13.006Z,10.07
2023-04-07T14:14:39.655Z,9.07
2023-04-07T14:17:06.592Z,13.32
2023-04-07T14:19:33.499Z,13.65
2023-04-07T14:22:00.387Z,16.05
2023-04-07T14:24:27.220Z,9.02
2023-04-07T14:26:54.646Z,10.48
2023-04-07T14:29:22.207Z,8.75
2023-04-07T14:31:48.821Z,13.82
2023-04-07T14:34:15.683Z,13.60
2023-04-07T14:36:53.332Z,8.73
2023-04-07T14:39:20.227Z,13.00
2023-04-07T14:41:47.883Z,11.20
2023-04-07T14:44:14.602Z,9.73
2023-04-07T14:46:42.522Z,13.02
2023-04-07T14:49:09.653Z,10.00
2023-04-07T14:51:36.339Z,14.02
2023-04-07T14:54:03.137Z,9.25
2023-04-07T14:56:29.751Z,10.63
2023-04-07T14:58:56.374Z,11.00
2023-04-07T15:01:23.129Z,9.32
2023-04-07T15:03:52.136Z,12.93
2023-04-07T15:06:19.429Z,11.40
2023-04-07T15:08:46.105Z,15.13
2023-04-07T15:11:13.217Z,12.55
2023-04-07T15:13:39.927Z,14.50
2023-04-07T15:16:10.521Z,17.52
2023-04-07T15:18:39.817Z,9.68
2023-04-07T15:21:07.121Z,10.07
2023-04-07T15:23:34.012Z,7.30
2023-04-07T15:26:00.978Z,7.25
2023-04-07T15:28:27.600Z,12.38
2023-04-07T15:30:54.262Z,17.48
2023-04-07T15:33:20.988Z,10.57
2023-04-07T15:35:47.653Z,14.68
2023-04-07T15:38:14.441Z,10.32
2023-04-07T15:40:41.672Z,10.32
2023-04-07T15:43:11.010Z,10.13
2023-04-07T15:45:42.496Z,16.20
2023-04-07T15:48:10.278Z,8.88
2023-04-07T15:50:37.552Z,8.52
2023-04-07T15:53:04.912Z,9.57
2023-04-07T15:55:35.713Z,15.68
2023-04-07T15:58:03.142Z,10.45
2023-04-07T16:00:32.842Z,10.27
2023-04-07T16:03:01.176Z,14.95
2023-04-07T16:05:27.910Z,7.70
2023-04-07T16:07:54.658Z,7.65
2023-04-07T16:10:21.395Z,10.45
2023-04-07T16:12:48.518Z,15.73
2023-04-07T16:15:20.509Z,10.02
2023-04-07T16:17:49.892Z,11.20
2023-04-07T16:20:16.693Z,8.38
2023-04-07T16:22:48.423Z,11.15
2023-04-07T16:25:16.513Z,14.90
2023-04-07T16:27:44.890Z,16.50
2023-04-07T16:30:13.871Z,20.52
2023-04-07T16:32:44.631Z,10.98
2023-04-07T16:35:12.075Z,18.25
2023-04-07T16:37:39.965Z,10.95
2023-04-07T16:40:08.942Z,13.75
2023-04-07T16:42:36.478Z,14.15
2023-04-07T16:45:03.460Z,12.00
2023-04-07T16:47:31.194Z,17.98
2023-04-07T16:49:58.764Z,10.60
2023-04-07T16:52:25.458Z,14.57
2023-04-07T16:54:52.472Z,15.00
2023-04-07T16:57:19.145Z,14.25
2023-04-07T16:59:46.422Z,15.85
2023-04-07T17:02:16.278Z,16.83
2023-04-07T17:04:43.961Z,25.35
2023-04-07T17:07:11.544Z,15.63
2023-04-07T17:09:38.650Z,13.77
2023-04-07T17:12:08.422Z,18.80
2023-04-07T17:14:35.106Z,20.77
2023-04-07T17:17:02.333Z,22.98
2023-04-07T17:19:29.106Z,24.77
2023-04-07T17:21:56.117Z,16.20
2023-04-07T17:24:23.021Z,17.48
2023-04-07T17:26:49.686Z,24.35
2023-04-07T17:29:17.296Z,16.20
2023-04-07T17:31:44.119Z,25.92
2023-04-07T17:34:11.314Z,21.88
2023-04-07T17:36:38.229Z,21.63
2023-04-07T17:39:05.364Z,14.00
2023-04-07T17:41:35.042Z,13.40
2023-04-07T17:44:02.241Z,16.42
2023-04-07T17:46:29.709Z,12.20
2023-04-07T17:48:59.760Z,11.18
2023-04-07T17:51:26.940Z,18.52
2023-04-07T17:53:54.270Z,14.38
2023-04-07T17:56:21.678Z,18.02
2023-04-07T17:58:48.535Z,18.20
2023-04-07T18:01:16.655Z,12.93
2023-04-07T18:03:44.060Z,16.73
2023-04-07T18:06:16.670Z,45.00
2023-04-07T18:08:46.408Z,17.85
2023-04-07T18:11:13.342Z,23.42
2023-04-07T18:13:40.294Z,103.60
2023-04-07T18:16:09.597Z,16.55
2023-04-07T18:18:38.089Z,17.10
2023-04-07T18:21:06.333Z,19.10
2023-04-07T18:23:32.932Z,21.17
2023-04-07T18:26:04.678Z,22.52
2023-04-07T18:28:31.530Z,24.10
2023-04-07T18:31:03.900Z,22.75
2023-04-07T18:33:32.872Z,24.77
2023-04-07T18:36:02.400Z,22.90
2023-04-07T18:38:29.139Z,20.52
2023-04-07T18:40:55.928Z,24.13
2023-04-07T18:43:22.617Z,19.55
2023-04-07T18:45:49.266Z,21.17
2023-04-07T18:48:16.028Z,23.55
2023-04-07T18:50:42.710Z,21.38
2023-04-07T18:53:09.345Z,17.92
2023-04-07T18:55:36.473Z,23.70
2023-04-07T18:58:03.841Z,25.15
2023-04-07T19:00:30.536Z,21.55
2023-04-07T19:02:57.330Z,25.52
2023-04-07T19:05:25.886Z,28.33
2023-04-07T19:07:52.678Z,21.42
2023-04-07T19:10:19.395Z,25.38
2023-04-07T19:12:46.065Z,18.80
2023-04-07T19:15:12.730Z,24.40
2023-04-07T19:17:39.639Z,22.45
2023-04-07T19:20:07.392Z,21.13
2023-04-07T19:22:34.363Z,18.25
2023-04-07T19:25:01.043Z,23.48
2023-04-07T19:27:27.683Z,20.00
2023-04-07T19:29:54.329Z,23.17
2023-04-07T19:32:21.050Z,20.63
2023-04-07T19:34:47.725Z,18.45
2023-04-07T19:37:14.408Z,26.65
2023-04-07T19:39:46.911Z,18.63
2023-04-07T19:42:18.956Z,21.98
2023-04-07T19:44:45.787Z,22.75
2023-04-07T19:47:12.528Z,19.48
2023-04-07T19:49:39.206Z,22.88
2023-04-07T19:52:06.016Z,21.83
2023-04-07T19:54:32.684Z,21.15
2023-04-07T19:56:59.356Z,21.55
2023-04-07T19:59:26.204Z,24.67
2023-04-07T20:01:52.981Z,26.25
2023-04-07T20:04:19.965Z,26.92
2023-04-07T20:06:46.610Z,22.23
2023-04-07T20:09:13.214Z,24.55
2023-04-07T20:11:39.870Z,23.02
2023-04-07T20:14:06.479Z,25.48
2023-04-07T20:16:33.236Z,21.48
2023-04-07T20:18:59.962Z,22.75
2023-04-07T20:21:27.367Z,22.17
2023-04-07T20:23:53.973Z,24.50
2023-04-07T20:26:22.123Z,29.50
2023-04-07T20:28:49.145Z,27.88
2023-04-07T20:31:16.177Z,22.90
2023-04-07T20:33:42.818Z,27.08
2023-04-07T20:36:09.387Z,30.50
2023-04-07T20:38:36.212Z,30.38
2023-04-07T20:41:02.951Z,28.15
2023-04-07T20:43:29.658Z,24.05
2023-04-07T20:45:57.985Z,25.98
2023-04-07T20:48:24.764Z,25.83
2023-04-07T20:50:52.017Z,27.00
2023-04-07T20:53:19.597Z,26.70
2023-04-07T20:55:47.385Z,24.20
2023-04-07T20:58:14.110Z,27.30
2023-04-07T21:00:40.759Z,30.63
2023-04-07T21:03:07.618Z,25.02
2023-04-07T21:05:34.486Z,30.48
2023-04-07T21:08:01.331Z,27.63
2023-04-07T21:10:28.313Z,27.17
2023-04-07T21:12:54.930Z,28.85
2023-04-07T21:15:21.591Z,28.73
2023-04-07T21:17:48.286Z,26.98
2023-04-07T21:20:14.933Z,33.88
2023-04-07T21:22:41.583Z,34.65
2023-04-07T21:25:08.728Z,31.60
2023-04-07T21:27:36.176Z,25.90
2023-04-07T21:30:06.852Z,26.13
2023-04-07T21:32:33.555Z,30.83
2023-04-07T21:35:00.821Z,34.92
2023-04-07T21:37:27.649Z,25.45
2023-04-07T21:39:54.671Z,29.42
2023-04-07T21:42:22.412Z,29.48
2023-04-07T21:44:49.102Z,33.50
2023-04-07T21:47:15.926Z,31.42
2023-04-07T21:49:42.590Z,30.50
2023-04-07T21:52:09.297Z,32.22
2023-04-07T21:54:36.486Z,30.98
2023-04-07T21:57:03.422Z,38.47
2023-04-07T21:59:30.100Z,30.38
2023-04-07T22:01:57.344Z,27.00
2023-04-07T22:04:24.143Z,32.67
2023-04-07T22:06:50.842Z,34.45
2023-04-07T22:09:17.595Z,30.25
2023-04-07T22:11:44.226Z,34.55
2023-04-07T22:14:10.950Z,29.95
2023-04-07T22:16:37.641Z,33.95
2023-04-07T22:19:04.404Z,34.22
2023-04-07T22:21:31.462Z,33.63
2023-04-07T22:23:58.376Z,35.40
2023-04-07T22:26:25.558Z,44.00
2023-04-07T22:28:52.206Z,37.42
2023-04-07T22:31:18.820Z,36.97
2023-04-07T22:33:45.457Z,39.03
2023-04-07T22:36:12.050Z,43.17
2023-04-07T22:38:38.627Z,34.45
2023-04-07T22:41:05.391Z,32.60
2023-04-07T22:43:32.028Z,36.30
2023-04-07T22:45:58.641Z,40.88
2023-04-07T22:48:25.294Z,36.50
2023-04-07T22:50:51.986Z,33.10
2023-04-07T22:53:18.583Z,31.10
2023-04-07T22:55:45.429Z,41.08
2023-04-07T22:58:12.051Z,37.08
2023-04-07T23:00:38.913Z,32.80
2023-04-07T23:03:05.724Z,33.72
2023-04-07T23:05:32.449Z,36.15
2023-04-07T23:07:59.100Z,35.08
2023-04-07T23:10:25.779Z,32.45
2023-04-07T23:12:53.977Z,27.85
2023-04-07T23:15:20.934Z,37.55
2023-04-07T23:17:47.730Z,34.03
2023-04-07T23:20:14.480Z,30.88
2023-04-07T23:22:41.125Z,29.85
2023-04-07T23:25:08.129Z,28.83
2023-04-07T23:27:34.707Z,30.85
2023-04-07T23:30:01.603Z,30.70
2023-04-07T23:32:28.703Z,26.05
2023-04-07T23:34:55.402Z,27.77
2023-04-07T23:37:22.058Z,26.92
2023-04-07T23:39:48.697Z,26.88
2023-04-07T23:42:15.424Z,25.70
2023-04-07T23:44:42.089Z,24.50
2023-04-07T23:47:08.680Z,24.33
2023-04-07T23:49:35.301Z,23.67
2023-04-07T23:52:02.500Z,19.70
2023-04-07T23:54:29.222Z,23.63
2023-04-07T23:56:56.988Z,24.85
2023-04-07T23:59:23.723Z,26.15
